Time;durP1;ratioP1;P1;durP2;ratioP2;P2;SDS_P1;SDS_P2;PMS_P1;PMS_P2;Temp;Humidity;BMP_temperature;BMP_pressure;BME280_temperature;BME280_humidity;BME280_pressure;Samples;Min_cycle;Max_cycle;Signal;HPM_P1;HPM_P2
2022/01/27 00:00:42;;;;;;;2.45;1.63;;;;;;;1.76;48.69;93686.84;2068057;69;20161;-71
2022/01/27 00:03:32;;;;;;;4.40;1.70;;;;;;;1.97;47.09;93690.53;2068230;69;20148;-69
2022/01/27 00:06:07;;;;;;;2.63;1.50;;;;;;;1.91;47.52;93683.56;2067790;69;20188;-68
2022/01/27 00:08:47;;;;;;;3.65;1.70;;;;;;;2.00;47.62;93689.44;2068506;69;20501;-67
2022/01/27 00:11:15;;;;;;;2.90;1.80;;;;;;;1.99;47.24;93681.66;2067998;69;20155;-70
2022/01/27 00:13:56;;;;;;;5.32;1.90;;;;;;;2.16;47.08;93682.13;2068003;69;20138;-71
2022/01/27 00:16:25;;;;;;;2.67;1.55;;;;;;;2.12;47.42;93667.78;2068377;69;20650;-70
2022/01/27 00:18:52;;;;;;;2.67;1.67;;;;;;;2.04;47.39;93678.78;2065017;69;20211;-69
2022/01/27 00:21:21;;;;;;;3.13;1.50;;;;;;;1.95;47.50;93676.41;2068081;69;20698;-69
2022/01/27 00:23:47;;;;;;;2.53;1.60;;;;;;;2.08;46.39;93670.13;2068277;69;20505;-74
2022/01/27 00:26:15;;;;;;;2.60;1.30;;;;;;;1.89;47.49;93672.25;2068334;69;20217;-69
2022/01/27 00:28:41;;;;;;;3.42;1.80;;;;;;;2.04;47.12;93661.38;2067926;69;20172;-69
2022/01/27 00:31:08;;;;;;;2.40;1.70;;;;;;;2.12;47.32;93662.22;2064885;69;20176;-70
2022/01/27 00:33:34;;;;;;;4.32;1.70;;;;;;;1.99;46.85;93659.44;2068024;69;20150;-79
2022/01/27 00:36:00;;;;;;;2.40;1.60;;;;;;;1.96;47.44;93658.47;2067970;69;20264;-73
2022/01/27 00:38:26;;;;;;;2.55;1.48;;;;;;;2.05;47.34;93662.84;2067955;69;20678;-76
2022/01/27 00:40:52;;;;;;;6.30;1.60;;;;;;;2.12;47.07;93653.91;2067851;69;20276;-69
2022/01/27 00:43:18;;;;;;;2.88;1.60;;;;;;;2.05;47.24;93660.06;2067688;69;20147;-72
2022/01/27 00:45:44;;;;;;;2.42;1.40;;;;;;;2.08;48.45;93647.91;2067794;69;20152;-71
2022/01/27 00:48:10;;;;;;;2.75;1.40;;;;;;;1.92;48.11;93654.50;2064330;69;20260;-70
2022/01/27 00:50:38;;;;;;;2.95;1.33;;;;;;;1.86;48.20;93639.97;2067715;69;20168;-70
2022/01/27 00:53:21;;;;;;;2.58;1.15;;;;;;;1.89;47.54;93639.66;2064530;69;20176;-73
2022/01/27 00:55:48;;;;;;;2.97;1.35;;;;;;;2.02;46.65;93633.38;2068018;69;20136;-70
2022/01/27 00:58:35;;;;;;;2.35;1.50;;;;;;;2.01;46.21;93634.66;2068061;69;20145;-70
2022/01/27 01:01:03;;;;;;;2.97;1.60;;;;;;;2.06;45.51;93627.50;2068156;69;20140;-70
2022/01/27 01:03:36;;;;;;;1.98;1.23;;;;;;;2.19;45.54;93633.06;2067711;69;20197;-73
2022/01/27 01:34:34;;;;;;;3.00;1.42;;;;;;;1.97;46.48;93637.75;2067558;69;20132;-69
2022/01/27 01:37:03;;;;;;;3.20;1.25;;;;;;;1.87;46.40;93622.03;2064391;69;20143;-69
2022/01/27 01:39:33;;;;;;;3.42;1.20;;;;;;;2.03;46.53;93618.22;2067958;69;20145;-70
2022/01/27 01:42:00;;;;;;;1.33;0.98;;;;;;;1.96;46.20;93619.59;2067796;69;20513;-69
2022/01/27 01:44:27;;;;;;;2.90;0.85;;;;;;;1.94;45.82;93627.72;2067691;69;20656;-69
2022/01/27 01:46:53;;;;;;;1.92;1.02;;;;;;;2.09;45.45;93629.97;2064367;69;20683;-70
2022/01/27 01:49:19;;;;;;;3.67;1.10;;;;;;;2.15;45.10;93632.63;2067475;69;20310;-70
2022/01/27 01:51:45;;;;;;;1.85;1.10;;;;;;;2.19;45.35;93627.50;2067714;69;20218;-72
2022/01/27 01:54:12;;;;;;;2.35;1.20;;;;;;;2.03;45.16;93635.63;2067699;69;20524;-73
2022/01/27 01:56:40;;;;;;;1.17;1.00;;;;;;;2.15;45.40;93632.63;2064390;69;20147;-70
2022/01/27 01:59:06;;;;;;;1.77;1.00;;;;;;;2.27;44.98;93631.88;2067877;69;20244;-70
2022/01/27 02:01:33;;;;;;;2.28;1.10;;;;;;;2.22;44.66;93634.78;2067596;69;20279;-70
2022/01/27 02:04:05;;;;;;;2.55;1.42;;;;;;;2.15;44.95;93630.59;2064396;69;20616;-69
2022/01/27 02:06:37;;;;;;;1.60;1.20;;;;;;;2.10;45.58;93625.88;2068096;69;20179;-69
2022/01/27 02:09:13;;;;;;;2.00;1.30;;;;;;;2.02;46.61;93627.84;2067955;69;20217;-69
2022/01/27 02:19:56;;;;;;;0.90;0.80;;;;;;;1.94;47.16;93624.94;2067723;69;20165;-69
2022/01/27 02:22:22;;;;;;;1.75;1.10;;;;;;;1.86;46.62;93626.09;2067865;69;20266;-69
2022/01/27 02:24:49;;;;;;;1.08;0.98;;;;;;;1.83;46.20;93627.88;2068368;69;20148;-71
2022/01/27 02:27:15;;;;;;;1.77;1.15;;;;;;;1.91;45.85;93625.25;2068209;69;20271;-69
2022/01/27 02:29:44;;;;;;;2.72;1.20;;;;;;;1.79;46.00;93624.72;2068248;69;20239;-69
2022/01/27 02:32:11;;;;;;;1.23;0.95;;;;;;;1.88;45.58;93631.84;2064931;69;20167;-74
2022/01/27 02:34:37;;;;;;;1.67;1.05;;;;;;;1.96;45.35;93624.38;2067899;69;20152;-73
2022/01/27 02:37:03;;;;;;;3.53;1.20;;;;;;;1.80;46.44;93622.66;2064819;69;20156;-68
2022/01/27 02:39:29;;;;;;;2.58;1.42;;;;;;;1.91;45.50;93623.22;2065094;69;20136;-69
2022/01/27 02:41:57;;;;;;;2.08;1.10;;;;;;;1.88;45.10;93620.75;2068189;69;20155;-70
2022/01/27 02:44:29;;;;;;;2.15;1.13;;;;;;;1.85;45.16;93616.28;2068431;69;20171;-73
2022/01/27 02:46:56;;;;;;;1.40;1.30;;;;;;;1.77;45.71;93611.34;2068343;69;20188;-69
2022/01/27 02:49:22;;;;;;;2.85;1.35;;;;;;;1.83;45.19;93618.81;2068073;69;20145;-72
2022/01/27 02:51:47;;;;;;;2.00;1.20;;;;;;;1.76;45.25;93609.84;2068372;69;20160;-69
2022/01/27 02:54:13;;;;;;;2.15;1.20;;;;;;;1.81;45.24;93615.84;2068278;69;20132;-73
2022/01/27 02:56:44;;;;;;;1.98;1.27;;;;;;;1.85;45.35;93622.56;2068113;69;20168;-72
2022/01/27 02:59:12;;;;;;;1.85;1.08;;;;;;;1.68;45.52;93616.56;2068277;69;20140;-69
2022/01/27 03:01:37;;;;;;;1.80;0.90;;;;;;;1.69;44.65;93624.34;2064839;69;20155;-70
2022/01/27 03:04:03;;;;;;;1.40;1.00;;;;;;;1.71;44.86;93619.03;2068365;69;20156;-68
2022/01/27 03:06:29;;;;;;;1.45;1.00;;;;;;;1.79;44.19;93624.72;2067955;69;20145;-69
2022/01/27 03:08:54;;;;;;;1.40;0.98;;;;;;;1.87;44.54;93622.78;2068313;69;20156;-70
2022/01/27 03:11:38;;;;;;;0.93;0.80;;;;;;;1.91;44.16;93634.31;2068408;69;20152;-69
2022/01/27 03:14:08;;;;;;;3.00;1.10;;;;;;;1.89;45.93;93631.34;2068296;69;20211;-69
2022/01/27 03:16:33;;;;;;;1.98;1.08;;;;;;;1.82;44.94;93626.41;2068034;69;20247;-69
2022/01/27 03:18:59;;;;;;;2.58;1.02;;;;;;;1.82;44.96;93634.72;2068237;69;20240;-71
2022/01/27 03:21:25;;;;;;;1.90;1.25;;;;;;;1.95;45.41;93639.56;2068168;69;20164;-69
2022/01/27 03:23:50;;;;;;;1.45;1.02;;;;;;;1.84;44.14;93634.97;2068270;69;20144;-73
2022/01/27 03:26:16;;;;;;;2.30;1.27;;;;;;;1.84;44.71;93632.19;2068229;69;20160;-69
2022/01/27 03:28:46;;;;;;;1.80;1.20;;;;;;;1.87;44.21;93647.03;2068148;69;20226;-68
2022/01/27 03:31:14;;;;;;;1.83;1.05;;;;;;;1.76;44.96;93634.09;2068139;69;20133;-72
2022/01/27 03:33:40;;;;;;;1.52;1.08;;;;;;;1.88;45.13;93640.94;2067915;69;20516;-70
2022/01/27 03:36:06;;;;;;;2.05;1.20;;;;;;;1.58;45.78;93638.41;2064621;69;20152;-69
2022/01/27 03:38:32;;;;;;;1.70;1.08;;;;;;;1.67;45.25;93654.66;2068034;69;20203;-69
2022/01/27 03:40:58;;;;;;;1.48;1.05;;;;;;;1.70;45.80;93664.72;2068193;69;20156;-69
2022/01/27 03:43:25;;;;;;;1.42;1.08;;;;;;;1.63;44.88;93662.56;2068279;69;20240;-68
2022/01/27 03:45:50;;;;;;;1.98;1.10;;;;;;;1.77;44.56;93664.09;2068147;69;20180;-70
2022/01/27 03:48:16;;;;;;;1.25;0.77;;;;;;;1.72;45.15;93675.28;2068322;69;20237;-70
2022/01/27 03:50:42;;;;;;;1.33;1.00;;;;;;;1.78;45.87;93670.38;2067941;69;20160;-69
2022/01/27 03:53:08;;;;;;;3.10;1.00;;;;;;;1.62;46.06;93672.16;2067887;69;20152;-72
2022/01/27 03:55:33;;;;;;;2.45;1.20;;;;;;;1.71;44.59;93669.00;2064695;69;20144;-71
2022/01/27 03:57:59;;;;;;;1.40;1.00;;;;;;;1.74;43.85;93672.72;2067996;69;20153;-70
2022/01/27 04:00:24;;;;;;;1.63;1.00;;;;;;;1.60;44.36;93663.59;2067967;69;20166;-68
2022/01/27 04:03:00;;;;;;;1.65;1.10;;;;;;;1.62;44.88;93663.09;2068057;69;20255;-71
2022/01/27 04:05:33;;;;;;;1.73;1.00;;;;;;;1.66;45.82;93663.53;2067531;69;20556;-68
2022/01/27 04:07:58;;;;;;;1.80;0.95;;;;;;;1.59;46.78;93662.13;2068162;69;20187;-71
2022/01/27 04:10:24;;;;;;;1.52;0.90;;;;;;;1.59;45.82;93673.22;2068109;69;20680;-68
2022/01/27 04:12:50;;;;;;;2.50;1.20;;;;;;;1.50;45.20;93665.28;2068108;69;20240;-69
2022/01/27 04:15:15;;;;;;;9.65;1.35;;;;;;;1.52;45.16;93660.72;2068125;69;20144;-68
2022/01/27 04:17:41;;;;;;;7.00;1.02;;;;;;;1.42;46.83;93667.19;2067999;69;20153;-68
2022/01/27 04:20:07;;;;;;;2.30;0.95;;;;;;;1.51;46.31;93659.22;2067698;69;20537;-69
2022/01/27 04:22:32;;;;;;;1.20;0.90;;;;;;;1.39;45.69;93659.94;2067847;69;20233;-71
2022/01/27 04:24:58;;;;;;;1.63;1.08;;;;;;;1.48;45.51;93656.75;2064755;69;20179;-70
2022/01/27 04:27:29;;;;;;;2.17;1.20;;;;;;;1.42;45.86;93659.63;2068051;69;20140;-71
2022/01/27 04:29:55;;;;;;;3.25;1.17;;;;;;;1.37;46.13;93654.13;2068115;69;20206;-75
2022/01/27 04:32:26;;;;;;;2.20;1.20;;;;;;;1.36;45.36;93656.16;2064655;69;20152;-74
2022/01/27 04:34:58;;;;;;;1.50;1.08;;;;;;;1.51;45.46;93650.91;2067895;69;20188;-72
2022/01/27 04:37:25;;;;;;;2.30;1.17;;;;;;;1.45;44.97;93649.47;2068166;69;20236;-72
2022/01/27 04:40:00;;;;;;;4.43;1.73;;;;;;;1.48;44.52;93653.97;2068083;69;20147;-69
2022/01/27 04:42:39;;;;;;;6.65;3.30;;;;;;;1.46;45.28;93650.97;2065214;69;20148;-68
2022/01/27 04:45:07;;;;;;;1.77;1.20;;;;;;;1.41;44.75;93657.34;2067517;69;20152;-69
2022/01/27 04:47:38;;;;;;;2.00;1.15;;;;;;;1.36;44.92;93653.41;2064638;69;20172;-69
2022/01/27 04:50:05;;;;;;;5.43;1.10;;;;;;;1.46;44.45;93654.50;2064944;69;20223;-72
2022/01/27 04:52:34;;;;;;;2.33;1.02;;;;;;;1.52;44.22;93648.88;2068141;69;20257;-72
2022/01/27 04:55:11;;;;;;;2.47;1.30;;;;;;;1.53;43.88;93645.56;2068088;69;20631;-68
2022/01/27 04:57:39;;;;;;;1.40;1.10;;;;;;;1.58;43.80;93649.53;2068138;69;20144;-67
2022/01/27 05:00:07;;;;;;;1.27;0.90;;;;;;;1.50;45.07;93643.84;2068114;69;20656;-68
2022/01/27 05:02:46;;;;;;;5.18;1.00;;;;;;;1.44;45.21;93645.97;2068122;69;20527;-67
2022/01/27 05:05:11;;;;;;;3.00;1.05;;;;;;;1.34;45.19;93650.41;2068050;69;20172;-68
2022/01/27 05:07:38;;;;;;;1.40;1.00;;;;;;;1.52;45.04;93646.84;2064731;69;20251;-69
2022/01/27 05:10:12;;;;;;;2.38;1.30;;;;;;;1.49;44.03;93642.34;2068107;69;20168;-70
2022/01/27 05:12:46;;;;;;;1.35;0.90;;;;;;;1.43;45.08;93643.72;2064879;69;20136;-70
2022/01/27 05:15:11;;;;;;;3.63;0.80;;;;;;;1.46;44.80;93642.66;2068192;69;20148;-73
2022/01/27 05:17:37;;;;;;;2.47;1.20;;;;;;;1.38;43.51;93641.78;2068356;69;20140;-69
2022/01/27 05:20:04;;;;;;;1.85;1.02;;;;;;;1.50;43.47;93648.63;2068191;69;20141;-73
2022/01/27 05:22:31;;;;;;;1.42;0.93;;;;;;;1.42;43.23;93656.84;2068454;69;20508;-71
2022/01/27 05:24:57;;;;;;;6.32;1.15;;;;;;;1.62;43.31;93658.28;2065012;69;20627;-72
2022/01/27 05:27:23;;;;;;;2.83;1.52;;;;;;;1.52;43.86;93648.88;2068295;69;20148;-69
2022/01/27 05:29:51;;;;;;;2.58;1.00;;;;;;;1.57;43.54;93642.47;2068296;69;20304;-70
2022/01/27 05:32:18;;;;;;;2.75;1.10;;;;;;;1.53;42.79;93639.25;2068271;69;20136;-69
2022/01/27 05:34:46;;;;;;;2.00;1.10;;;;;;;1.57;44.27;93639.72;2068198;69;20244;-69
2022/01/27 05:37:11;;;;;;;2.47;0.98;;;;;;;1.58;43.03;93646.00;2065054;69;20176;-71
2022/01/27 05:39:37;;;;;;;3.45;1.13;;;;;;;1.60;42.47;93644.19;2064943;69;20243;-69
2022/01/27 05:42:03;;;;;;;7.45;0.95;;;;;;;1.72;44.05;93639.19;2068562;69;20206;-69
2022/01/27 05:44:31;;;;;;;5.30;1.20;;;;;;;1.70;43.72;93642.50;2068332;69;20129;-68
2022/01/27 05:46:57;;;;;;;4.03;0.80;;;;;;;1.63;43.82;93643.13;2068279;69;20151;-69
2022/01/27 05:49:23;;;;;;;2.58;0.98;;;;;;;1.68;43.40;93649.88;2068209;69;20172;-69
2022/01/27 05:51:50;;;;;;;2.80;1.25;;;;;;;1.61;42.75;93653.28;2068220;69;20124;-74
2022/01/27 05:54:15;;;;;;;2.60;1.10;;;;;;;1.62;43.59;93647.19;2068253;69;20156;-71
2022/01/27 05:56:41;;;;;;;1.33;0.82;;;;;;;1.52;43.06;93662.75;2064820;69;20156;-70
2022/01/27 05:59:07;;;;;;;2.65;1.17;;;;;;;1.60;43.15;93668.41;2068235;69;20151;-75
2022/01/27 06:01:32;;;;;;;2.08;0.80;;;;;;;1.69;43.57;93674.31;2068380;69;20164;-71
2022/01/27 06:03:58;;;;;;;6.93;1.27;;;;;;;1.68;42.92;93674.84;2068152;69;20155;-72
2022/01/27 06:06:23;;;;;;;3.45;1.13;;;;;;;1.69;41.78;93676.34;2068137;69;20164;-73
2022/01/27 06:08:49;;;;;;;7.68;1.30;;;;;;;1.72;42.97;93672.50;2068205;69;20141;-70
2022/01/27 06:11:15;;;;;;;1.35;0.98;;;;;;;1.75;42.15;93675.00;2068157;69;20145;-69
2022/01/27 06:13:40;;;;;;;2.22;1.00;;;;;;;1.73;42.79;93680.31;2068218;69;20605;-69
2022/01/27 06:16:10;;;;;;;3.58;1.27;;;;;;;1.66;42.91;93661.50;2068326;69;20144;-75
2022/01/27 06:18:37;;;;;;;3.75;0.90;;;;;;;1.67;42.75;93667.81;2068196;69;20137;-74
2022/01/27 06:21:05;;;;;;;2.97;0.88;;;;;;;1.69;42.41;93665.97;2068077;69;20160;-75
2022/01/27 06:23:31;;;;;;;5.60;1.00;;;;;;;1.63;42.39;93661.81;2068318;69;20228;-74
2022/01/27 06:25:59;;;;;;;3.17;0.90;;;;;;;1.71;43.11;93666.22;2068204;69;20128;-71
2022/01/27 06:28:24;;;;;;;2.72;1.05;;;;;;;1.66;43.17;93667.06;2068118;69;20157;-70
2022/01/27 06:30:50;;;;;;;3.35;1.00;;;;;;;1.68;43.25;93666.53;2068158;69;20583;-69
2022/01/27 06:33:15;;;;;;;2.28;1.10;;;;;;;1.60;42.89;93666.38;2068229;69;20148;-76
2022/01/27 06:35:41;;;;;;;4.20;1.10;;;;;;;1.66;42.02;93664.28;2068117;69;20570;-70
2022/01/27 06:38:07;;;;;;;5.68;1.00;;;;;;;1.66;41.88;93669.09;2068190;69;20145;-69
2022/01/27 06:40:32;;;;;;;5.25;1.80;;;;;;;1.65;42.24;93668.34;2064877;69;20227;-70
2022/01/27 06:42:58;;;;;;;4.95;1.73;;;;;;;1.73;42.58;93662.91;2068169;69;20148;-69
2022/01/27 06:45:24;;;;;;;12.05;3.05;;;;;;;1.76;42.42;93665.38;2068152;69;20136;-69
2022/01/27 06:47:49;;;;;;;25.30;5.72;;;;;;;1.67;42.97;93674.09;2064927;69;20219;-71
2022/01/27 06:50:15;;;;;;;8.52;3.13;;;;;;;1.53;42.95;93661.47;2068027;69;20144;-74
2022/01/27 06:52:42;;;;;;;8.00;1.30;;;;;;;1.62;42.86;93663.09;2064803;69;20149;-74
2022/01/27 06:55:09;;;;;;;2.42;1.40;;;;;;;1.63;41.14;93664.59;2068206;69;20505;-72
2022/01/27 06:57:35;;;;;;;5.78;1.20;;;;;;;1.83;41.78;93663.97;2068217;69;20145;-73
2022/01/27 07:00:01;;;;;;;8.68;2.25;;;;;;;1.76;41.57;93651.50;2068308;69;20459;-74
2022/01/27 07:02:26;;;;;;;6.45;1.75;;;;;;;1.88;41.49;93656.84;2068093;69;20592;-73
2022/01/27 07:04:52;;;;;;;2.55;1.17;;;;;;;1.81;42.74;93654.72;2067984;69;20168;-73
2022/01/27 07:07:18;;;;;;;1.33;1.00;;;;;;;1.71;43.10;93652.34;2068051;69;20149;-72
2022/01/27 07:09:43;;;;;;;7.18;1.33;;;;;;;1.73;42.49;93651.78;2068628;69;20141;-72
2022/01/27 07:12:10;;;;;;;10.80;2.97;;;;;;;1.60;43.20;93660.84;2068678;69;20604;-69
2022/01/27 07:14:37;;;;;;;9.50;2.10;;;;;;;1.60;43.22;93668.41;2068620;69;20133;-69
2022/01/27 07:17:04;;;;;;;3.92;1.90;;;;;;;1.59;41.77;93655.81;2068722;69;20164;-68
2022/01/27 07:19:29;;;;;;;6.78;1.70;;;;;;;1.68;41.87;93660.97;2068595;69;20195;-68
2022/01/27 07:21:55;;;;;;;5.13;1.60;;;;;;;1.72;40.75;93664.19;2068609;69;20604;-73
2022/01/27 07:24:21;;;;;;;5.50;1.40;;;;;;;1.83;42.09;93658.44;2068654;69;20512;-75
2022/01/27 07:26:46;;;;;;;13.45;4.00;;;;;;;1.92;41.51;93654.50;2065271;69;20179;-71
2022/01/27 07:29:12;;;;;;;13.68;2.92;;;;;;;1.82;42.05;93654.16;2068586;69;20152;-70
2022/01/27 07:31:37;;;;;;;25.83;6.57;;;;;;;1.89;41.92;93663.91;2068656;69;20164;-69
2022/01/27 07:34:03;;;;;;;14.60;5.15;;;;;;;1.83;42.42;93661.22;2068479;69;20148;-70
2022/01/27 07:36:31;;;;;;;13.60;4.07;;;;;;;1.71;43.69;93660.66;2068684;69;20144;-71
2022/01/27 07:38:57;;;;;;;20.15;7.28;;;;;;;1.86;42.43;93654.59;2068566;69;20153;-70
2022/01/27 07:41:23;;;;;;;56.30;11.63;;;;;;;1.37;43.42;93662.47;2065125;69;20164;-69
2022/01/27 07:43:49;;;;;;;24.42;8.02;;;;;;;1.45;44.51;93663.34;2068545;69;20249;-69
2022/01/27 07:46:15;;;;;;;30.75;8.80;;;;;;;1.56;44.19;93659.66;2068547;69;20177;-70
2022/01/27 07:48:41;;;;;;;36.00;12.27;;;;;;;1.74;43.54;93665.16;2068510;69;20140;-70
2022/01/27 07:51:08;;;;;;;30.70;10.48;;;;;;;1.62;43.64;93661.06;2068433;69;20235;-69
2022/01/27 07:53:36;;;;;;;31.13;11.95;;;;;;;1.73;43.47;93658.09;2068548;69;20236;-74
2022/01/27 07:56:02;;;;;;;29.58;10.35;;;;;;;1.66;44.18;93655.22;2068469;69;20171;-75
2022/01/27 07:58:29;;;;;;;41.97;12.85;;;;;;;1.71;44.20;93657.16;2068589;69;20161;-73
2022/01/27 08:00:55;;;;;;;46.03;14.35;;;;;;;1.56;44.57;93640.22;2068530;69;20145;-72
2022/01/27 08:03:21;;;;;;;66.22;15.70;;;;;;;1.29;45.26;93650.50;2068632;69;20149;-75
2022/01/27 08:05:47;;;;;;;69.75;13.00;;;;;;;1.53;45.05;93630.94;2068397;69;20145;-72
2022/01/27 08:08:13;;;;;;;46.30;10.55;;;;;;;1.50;44.46;93638.28;2068534;69;20176;-75
2022/01/27 08:10:38;;;;;;;48.58;10.00;;;;;;;1.16;44.89;93651.94;2068504;69;20156;-72
2022/01/27 08:13:06;;;;;;;41.17;9.32;;;;;;;1.39;45.27;93643.28;2068746;69;20145;-72
2022/01/27 08:15:33;;;;;;;35.08;8.38;;;;;;;1.69;44.70;93643.03;2068603;69;20576;-73
2022/01/27 08:17:59;;;;;;;31.02;8.38;;;;;;;1.71;44.82;93637.72;2068467;69;20156;-69
2022/01/27 08:20:24;;;;;;;31.50;9.38;;;;;;;1.78;45.37;93635.03;2068159;69;20144;-70
2022/01/27 08:22:53;;;;;;;34.03;8.57;;;;;;;1.77;44.67;93632.81;2068474;69;20600;-69
2022/01/27 08:25:21;;;;;;;26.63;8.05;;;;;;;1.91;44.92;93623.22;2068473;69;20148;-72
2022/01/27 08:27:49;;;;;;;14.40;4.05;;;;;;;1.94;44.04;93615.84;2068510;69;20231;-75
2022/01/27 08:30:19;;;;;;;5.70;1.70;;;;;;;2.22;40.85;93612.56;2068554;69;20143;-76
2022/01/27 08:35:16;;;;;;;10.77;3.22;;;;;;;2.51;39.96;93608.66;2065023;69;20160;-73
2022/01/27 08:37:42;;;;;;;13.43;4.05;;;;;;;2.64;40.17;93599.56;2065256;69;20145;-72
2022/01/27 08:40:09;;;;;;;10.05;3.22;;;;;;;2.66;40.03;93601.81;2065121;69;20137;-72
2022/01/27 08:42:35;;;;;;;18.20;4.30;;;;;;;2.84;39.01;93600.16;2068419;69;20476;-73
2022/01/27 08:45:01;;;;;;;20.08;6.75;;;;;;;3.12;39.29;93597.53;2062535;69;20156;-71
2022/01/27 08:47:27;;;;;;;25.90;7.68;;;;;;;3.40;40.73;93607.25;2066527;69;20156;-71
2022/01/27 08:49:52;;;;;;;28.75;7.25;;;;;;;3.31;40.39;93614.78;2068292;69;20175;-72
2022/01/27 08:52:18;;;;;;;72.38;23.05;;;;;;;3.54;41.45;93603.84;2068556;69;20168;-72
2022/01/27 08:54:43;;;;;;;45.67;13.27;;;;;;;3.75;40.47;93603.09;2068428;69;20202;-70
2022/01/27 08:57:11;;;;;;;31.20;10.10;;;;;;;3.89;40.65;93604.50;2068520;69;20155;-69
2022/01/27 08:59:37;;;;;;;33.97;10.80;;;;;;;4.02;40.30;93587.69;2068426;69;20160;-69
2022/01/27 09:02:03;;;;;;;24.00;8.18;;;;;;;4.05;38.49;93583.09;2068432;69;20253;-72
2022/01/27 09:04:28;;;;;;;16.60;6.35;;;;;;;4.34;38.53;93584.56;2068468;69;20574;-76
2022/01/27 09:06:54;;;;;;;29.27;7.88;;;;;;;4.34;37.41;93584.56;2068413;69;20149;-75
2022/01/27 09:09:19;;;;;;;24.33;6.15;;;;;;;4.57;38.96;93579.09;2068396;69;20140;-73
2022/01/27 09:11:46;;;;;;;27.40;6.75;;;;;;;4.93;39.83;93583.16;2068446;69;20176;-74
2022/01/27 09:14:13;;;;;;;12.88;5.30;;;;;;;5.14;37.78;93586.56;2068338;69;20684;-71
2022/01/27 09:16:40;;;;;;;19.70;7.20;;;;;;;5.35;38.24;93597.59;2068350;69;20272;-70
2022/01/27 09:19:06;;;;;;;39.72;11.85;;;;;;;5.25;38.84;93594.59;2068282;69;20174;-69
2022/01/27 09:21:44;;;;;;;24.45;7.03;;;;;;;5.10;39.49;93589.72;2068568;69;20577;-71
2022/01/27 09:24:15;;;;;;;21.20;6.55;;;;;;;5.77;39.39;93591.66;2068365;69;20140;-70
2022/01/27 09:26:59;;;;;;;18.33;6.03;;;;;;;5.95;37.83;93576.59;2068421;69;20144;-71
2022/01/27 09:29:25;;;;;;;30.23;9.27;;;;;;;5.39;37.99;93577.69;2068429;69;20589;-70
2022/01/27 09:31:51;;;;;;;30.38;6.47;;;;;;;5.83;37.85;93573.44;2068174;69;20176;-70
2022/01/27 09:34:18;;;;;;;28.25;5.95;;;;;;;6.39;38.33;93570.78;2068317;69;20689;-70
2022/01/27 09:36:44;;;;;;;27.15;6.32;;;;;;;6.66;37.50;93573.88;2068386;69;20337;-70
2022/01/27 09:39:10;;;;;;;23.83;6.50;;;;;;;6.96;36.55;93563.88;2065021;69;20140;-71
2022/01/27 09:41:38;;;;;;;35.72;7.35;;;;;;;7.38;36.09;93564.78;2068354;69;20148;-79
2022/01/27 09:44:08;;;;;;;25.48;6.43;;;;;;;7.51;36.63;93572.16;2068430;69;20144;-72
2022/01/27 09:46:34;;;;;;;23.40;6.55;;;;;;;7.64;34.57;93574.69;2068219;69;20148;-72
2022/01/27 09:49:11;;;;;;;25.05;7.50;;;;;;;7.66;34.56;93571.31;2067975;69;20175;-76
2022/01/27 09:51:43;;;;;;;21.45;8.02;;;;;;;7.92;35.08;93558.78;2068160;69;20141;-75
2022/01/27 09:54:09;;;;;;;16.48;5.32;;;;;;;8.25;35.11;93562.25;2068432;69;20141;-76
2022/01/27 09:56:35;;;;;;;21.48;9.95;;;;;;;8.12;34.51;93565.34;2068245;69;20604;-69
2022/01/27 09:59:02;;;;;;;25.50;9.10;;;;;;;8.64;35.21;93554.19;2068275;69;20148;-70
2022/01/27 10:01:28;;;;;;;23.23;6.55;;;;;;;9.02;34.19;93556.56;2068284;69;20183;-69
2022/01/27 10:04:07;;;;;;;32.80;6.63;;;;;;;8.55;32.91;93552.06;2068237;69;20501;-69
2022/01/27 10:06:34;;;;;;;32.65;10.52;;;;;;;8.81;32.23;93551.38;2068336;69;20204;-73
2022/01/27 10:09:14;;;;;;;35.10;7.82;;;;;;;9.64;33.00;93545.25;2068244;69;20147;-69
2022/01/27 10:11:40;;;;;;;20.98;5.82;;;;;;;9.72;33.10;93536.69;2068355;69;20637;-69
2022/01/27 10:14:23;;;;;;;22.90;5.60;;;;;;;10.12;31.28;93536.22;2068231;69;20240;-69
2022/01/27 10:16:53;;;;;;;28.63;6.07;;;;;;;9.40;29.93;93541.28;2068358;69;20174;-69
2022/01/27 10:19:19;;;;;;;27.63;7.00;;;;;;;9.96;30.98;93529.38;2064829;69;20193;-70
2022/01/27 10:21:44;;;;;;;16.15;4.57;;;;;;;9.70;30.67;93528.84;2068347;69;20141;-70
2022/01/27 10:24:19;;;;;;;16.45;5.10;;;;;;;9.83;32.44;93522.06;2068138;69;20477;-70
2022/01/27 10:26:53;;;;;;;15.95;4.00;;;;;;;10.33;29.58;93519.56;2068050;69;20171;-71
2022/01/27 10:29:35;;;;;;;21.40;4.28;;;;;;;10.68;29.45;93519.31;2068222;69;20155;-71
2022/01/27 10:32:06;;;;;;;13.57;4.07;;;;;;;11.34;29.22;93511.38;2068301;69;20157;-70
2022/01/27 10:34:58;;;;;;;14.98;4.82;;;;;;;11.61;29.39;93518.88;2068063;69;20603;-73
2022/01/27 10:37:24;;;;;;;10.70;4.07;;;;;;;10.80;29.91;93517.38;2068206;69;20620;-70
2022/01/27 10:39:50;;;;;;;11.98;4.68;;;;;;;11.52;30.24;93514.00;2068137;69;20222;-70
2022/01/27 10:42:20;;;;;;;22.08;5.85;;;;;;;12.17;29.22;93507.22;2068199;69;20141;-75
2022/01/27 10:44:56;;;;;;;19.17;5.20;;;;;;;11.75;27.54;93505.00;2065270;69;20141;-74
2022/01/27 10:47:29;;;;;;;29.08;5.72;;;;;;;11.73;29.13;93496.41;2069229;69;20164;-72
2022/01/27 10:50:05;;;;;;;14.55;6.40;;;;;;;12.21;27.89;93493.38;2069011;69;20151;-71
2022/01/27 10:52:38;;;;;;;11.23;5.47;;;;;;;12.54;28.57;93489.88;2068719;69;20137;-76
2022/01/27 10:55:12;;;;;;;9.13;5.15;;;;;;;13.41;27.44;93491.97;2069266;69;20266;-69
2022/01/27 10:57:38;;;;;;;22.02;6.22;;;;;;;12.85;26.66;93482.06;2069382;69;20133;-75
2022/01/27 11:00:14;;;;;;;17.00;4.85;;;;;;;13.75;25.89;93479.25;2068658;69;20159;-75
2022/01/27 11:02:58;;;;;;;9.77;4.30;;;;;;;13.97;25.40;93474.19;2068630;69;20151;-74
2022/01/27 11:05:26;;;;;;;11.88;5.40;;;;;;;12.93;27.92;93470.53;2068558;69;20165;-74
2022/01/27 11:07:51;;;;;;;23.38;8.60;;;;;;;13.63;26.85;93472.81;2068800;69;20509;-74
2022/01/27 11:10:19;;;;;;;17.10;6.32;;;;;;;14.10;27.97;93467.91;2068736;69;20187;-75
2022/01/27 11:12:45;;;;;;;13.13;4.25;;;;;;;15.12;25.77;93470.25;2068743;69;20148;-72
2022/01/27 11:15:13;;;;;;;12.55;3.03;;;;;;;15.79;25.70;93476.06;2068597;69;20184;-74
2022/01/27 11:17:40;;;;;;;8.07;2.50;;;;;;;16.01;24.93;93471.56;2068763;69;20156;-75
2022/01/27 11:27:53;;;;;;;8.77;3.70;;;;;;;18.63;21.99;93464.91;2065264;69;20153;-73
2022/01/27 11:30:24;;;;;;;10.27;4.80;;;;;;;18.76;20.20;93466.94;2068473;69;20228;-77
2022/01/27 11:33:17;;;;;;;37.70;10.90;;;;;;;17.38;23.29;93464.97;2068532;69;20140;-70
2022/01/27 11:35:43;;;;;;;7.07;3.53;;;;;;;19.38;22.02;93448.09;2068459;69;20136;-73
2022/01/27 11:38:10;;;;;;;4.50;2.80;;;;;;;20.33;19.78;93456.00;2065395;69;20623;-74
2022/01/27 11:40:38;;;;;;;5.40;2.67;;;;;;;18.13;18.69;93436.38;2065267;69;20156;-70
2022/01/27 11:43:10;;;;;;;5.10;2.13;;;;;;;19.80;17.32;93434.75;2065221;69;20156;-74
2022/01/27 11:45:52;;;;;;;8.20;2.65;;;;;;;21.20;17.07;93431.84;2068506;69;20145;-73
2022/01/27 11:48:26;;;;;;;15.20;2.67;;;;;;;20.44;18.03;93426.38;2068676;69;20314;-73
2022/01/27 11:51:13;;;;;;;10.88;3.17;;;;;;;21.16;18.48;93417.38;2068408;69;20592;-77
2022/01/27 11:53:49;;;;;;;10.40;2.85;;;;;;;20.14;18.24;93408.84;2065289;69;20224;-71
2022/01/27 11:56:23;;;;;;;19.75;3.90;;;;;;;20.46;19.96;93411.41;2068659;69;20133;-72
2022/01/27 11:58:54;;;;;;;17.60;3.78;;;;;;;21.78;18.81;93409.34;2068515;69;20148;-72
2022/01/27 12:01:25;;;;;;;17.08;3.58;;;;;;;19.39;20.03;93409.59;2068533;69;20163;-74
2022/01/27 12:04:02;;;;;;;15.55;6.40;;;;;;;21.39;19.65;93402.41;2065196;69;20152;-73
2022/01/27 12:06:32;;;;;;;13.15;2.90;;;;;;;18.94;19.67;93398.50;2068550;69;20151;-75
2022/01/27 12:09:19;;;;;;;13.02;2.55;;;;;;;17.84;22.05;93390.94;2068519;69;20153;-73
2022/01/27 12:11:53;;;;;;;12.90;4.00;;;;;;;17.37;21.09;93372.44;2068489;69;20132;-75
2022/01/27 12:14:23;;;;;;;12.13;2.72;;;;;;;15.52;22.54;93370.34;2067961;69;20129;-78
2022/01/27 12:17:07;;;;;;;12.70;3.05;;;;;;;15.27;24.45;93378.91;2068652;69;20218;-76
2022/01/27 12:19:48;;;;;;;31.95;5.13;;;;;;;14.73;24.11;93366.03;2067693;69;20159;-75
2022/01/27 12:22:15;;;;;;;17.25;3.35;;;;;;;13.53;25.02;93359.78;2068637;69;20153;-73
2022/01/27 12:24:58;;;;;;;20.25;4.35;;;;;;;12.98;26.32;93357.13;2068951;69;20156;-75
2022/01/27 12:27:26;;;;;;;21.85;3.92;;;;;;;13.35;26.57;93353.03;2068322;69;20223;-71
2022/01/27 12:29:54;;;;;;;22.92;4.10;;;;;;;12.99;26.91;93357.88;2068347;69;20187;-73